地図

経路データ

SID SEASON NUMBER BASIN SUBBASIN NAME ISO_TIME NATURE LAT LON WMO_WIND WMO_PRES WMO_AGENCY TRACK_TYPE DIST2LAND LANDFALL IFLAG USA_AGENCY USA_ATCF_ID USA_LAT USA_LON USA_RECORD USA_STATUS USA_WIND USA_PRES USA_SSHS USA_R34_NE USA_R34_SE USA_R34_SW USA_R34_NW USA_R50_NE USA_R50_SE USA_R50_SW USA_R50_NW USA_R64_NE USA_R64_SE USA_R64_SW USA_R64_NW USA_POCI USA_ROCI USA_RMW USA_EYE TOKYO_LAT TOKYO_LON TOKYO_GRADE TOKYO_WIND TOKYO_PRES TOKYO_R50_DIR TOKYO_R50_LONG TOKYO_R50_SHORT TOKYO_R30_DIR TOKYO_R30_LONG TOKYO_R30_SHORT TOKYO_LAND CMA_LAT CMA_LON CMA_CAT CMA_WIND CMA_PRES HKO_LAT HKO_LON HKO_CAT HKO_WIND HKO_PRES NEWDELHI_LAT NEWDELHI_LON NEWDELHI_GRADE NEWDELHI_WIND NEWDELHI_PRES NEWDELHI_CI NEWDELHI_DP NEWDELHI_POCI REUNION_LAT REUNION_LON REUNION_TYPE REUNION_WIND REUNION_PRES REUNION_TNUM REUNION_CI REUNION_RMW REUNION_R34_NE REUNION_R34_SE REUNION_R34_SW REUNION_R34_NW REUNION_R50_NE REUNION_R50_SE REUNION_R50_SW REUNION_R50_NW REUNION_R64_NE REUNION_R64_SE REUNION_R64_SW REUNION_R64_NW BOM_LAT BOM_LON BOM_TYPE BOM_WIND BOM_PRES BOM_TNUM BOM_CI BOM_RMW BOM_R34_NE BOM_R34_SE BOM_R34_SW BOM_R34_NW BOM_R50_NE BOM_R50_SE BOM_R50_SW BOM_R50_NW BOM_R64_NE BOM_R64_SE BOM_R64_SW BOM_R64_NW BOM_ROCI BOM_POCI BOM_EYE BOM_POS_METHOD BOM_PRES_METHOD NADI_LAT NADI_LON NADI_CAT NADI_WIND NADI_PRES WELLINGTON_LAT WELLINGTON_LON WELLINGTON_WIND WELLINGTON_PRES DS824_LAT DS824_LON DS824_STAGE DS824_WIND DS824_PRES TD9636_LAT TD9636_LON TD9636_STAGE TD9636_WIND TD9636_PRES TD9635_LAT TD9635_LON TD9635_WIND TD9635_PRES TD9635_ROCI NEUMANN_LAT NEUMANN_LON NEUMANN_CLASS NEUMANN_WIND NEUMANN_PRES MLC_LAT MLC_LON MLC_CLASS MLC_WIND MLC_PRES USA_GUST BOM_GUST BOM_GUST_PER REUNION_GUST REUNION_GUST_PER USA_SEAHGT USA_SEARAD_NE USA_SEARAD_SE USA_SEARAD_SW USA_SEARAD_NW STORM_SPEED STORM_DIR
1942216N24132 1942 35 WP MM NOT_NAMED 1942-08-03 21:00:00 NR 23.5000 131.700 main 843 841 __________O___ -1 23.5000 131.700 7 5 279
1942216N24132 1942 35 WP MM NOT_NAMED 1942-08-04 00:00:00 NR 23.5364 131.458 main 841 827 __________P___ -1 23.5364 131.458 7 4 280
1942216N24132 1942 35 WP MM NOT_NAMED 1942-08-04 03:00:00 NR 23.5781 131.222 main 827 826 __________P___ -1 23.5781 131.222 7 4 283
1942216N24132 1942 35 WP MM NOT_NAMED 1942-08-04 06:00:00 NR 23.6307 131.001 main 826 815 __________P___ -1 23.6307 131.001 7 4 288
1942216N24132 1942 35 WP MM NOT_NAMED 1942-08-04 09:00:00 NR 23.7000 130.800 main 815 804 __________O___ -1 23.7000 130.800 4 4 294
1942216N24132 1942 35 WP MM NOT_NAMED 1942-08-04 12:00:00 NR 23.7861 130.622 main 804 793 __________P___ -1 23.7861 130.622 4 4 297
1942216N24132 1942 35 WP MM NOT_NAMED 1942-08-04 15:00:00 NR 23.8668 130.446 main 793 793 __________P___ -1 23.8668 130.446 4 4 291
1942216N24132 1942 35 WP MM NOT_NAMED 1942-08-04 18:00:00 NR 23.9141 130.247 main 794 794 __________P___ -1 23.9141 130.247 4 4 275
1942216N24132 1942 35 WP MM NOT_NAMED 1942-08-04 21:00:00 NR 23.9000 130.000 main 795 790 __________O___ -1 23.9000 130.000 4 5 258
1942216N24132 1942 35 WP MM NOT_NAMED 1942-08-05 00:00:00 NR 23.7980 129.675 main 790 753 __________P___ -1 23.7980 129.675 4 7 247
1942216N24132 1942 35 WP MM NOT_NAMED 1942-08-05 03:00:00 NR 23.6328 129.302 main 755 718 __________P___ -1 23.6328 129.302 4 8 242
1942216N24132 1942 35 WP MM NOT_NAMED 1942-08-05 06:00:00 NR 23.4261 128.903 main 721 686 __________P___ -1 23.4261 128.903 4 9 240
1942216N24132 1942 35 WP MM NOT_NAMED 1942-08-05 09:00:00 NR 23.2000 128.500 main 686 652 __________O___ -1 23.2000 128.500 4 9 238
1942216N24132 1942 35 WP MM NOT_NAMED 1942-08-05 12:00:00 NR 22.9570 128.100 main 652 623 __________P___ -1 22.9570 128.100 4 9 236
1942216N24132 1942 35 WP MM NOT_NAMED 1942-08-05 15:00:00 NR 22.7052 127.704 main 623 603 __________P___ -1 22.7052 127.704 4 9 236
1942216N24132 1942 35 WP MM NOT_NAMED 1942-08-05 18:00:00 NR 22.4758 127.331 main 593 575 __________P___ -1 22.4758 127.331 4 8 238
1942216N24132 1942 35 WP MM NOT_NAMED 1942-08-05 21:00:00 NR 22.3000 127.000 main 575 552 __________O___ -1 22.3000 127.000 4 6 244
1942216N24132 1942 35 WP MM NOT_NAMED 1942-08-06 00:00:00 NR 22.2049 126.724 main 552 532 __________P___ -1 22.2049 126.724 4 5 254
1942216N24132 1942 35 WP MM NOT_NAMED 1942-08-06 03:00:00 NR 22.1670 126.491 main 532 512 __________P___ -1 22.1670 126.491 4 4 265
1942216N24132 1942 35 WP MM NOT_NAMED 1942-08-06 06:00:00 NR 22.1707 126.287 main 512 492 __________P___ -1 22.1707 126.287 4 4 275
1942216N24132 1942 35 WP MM NOT_NAMED 1942-08-06 09:00:00 NR 22.2000 126.100 main 492 472 __________O___ -1 22.2000 126.100 4 4 278
1942216N24132 1942 35 WP MM NOT_NAMED 1942-08-06 12:00:00 NR 22.2202 125.907 main 472 449 __________P___ -1 22.2202 125.907 4 4 280
1942216N24132 1942 35 WP MM NOT_NAMED 1942-08-06 15:00:00 NR 22.2624 125.728 main 449 439 __________P___ -1 22.2624 125.728 4 3 288
1942216N24132 1942 35 WP MM NOT_NAMED 1942-08-06 18:00:00 NR 22.3234 125.560 main 439 417 __________P___ -1 22.3234 125.560 4 3 294
1942216N24132 1942 35 WP MM NOT_NAMED 1942-08-06 21:00:00 NR 22.4000 125.400 main 417 395 __________O___ -1 22.4000 125.400 4 3 296
1942216N24132 1942 35 WP MM NOT_NAMED 1942-08-07 00:00:00 NR 22.4734 125.231 main 395 383 __________P___ -1 22.4734 125.231 4 3 298
1942216N24132 1942 35 WP MM NOT_NAMED 1942-08-07 03:00:00 NR 22.5625 125.070 main 383 361 __________P___ -1 22.5625 125.070 4 3 305
1942216N24132 1942 35 WP MM NOT_NAMED 1942-08-07 06:00:00 NR 22.6703 124.924 main 361 349 __________P___ -1 22.6703 124.924 4 3 314
1942216N24132 1942 35 WP MM NOT_NAMED 1942-08-07 09:00:00 NR 22.8000 124.800 main 349 336 __________O___ -1 22.8000 124.800 4 3 326
1942216N24132 1942 35 WP MM NOT_NAMED 1942-08-07 12:00:00 NR 22.9492 124.723 main 336 324 __________P___ -1 22.9492 124.723 4 3 339
1942216N24132 1942 35 WP MM NOT_NAMED 1942-08-07 15:00:00 NR 23.1197 124.665 main 324 305 __________P___ -1 23.1197 124.665 4 4 343
1942216N24132 1942 35 WP MM NOT_NAMED 1942-08-07 18:00:00 NR 23.3054 124.598 main 305 286 __________P___ -1 23.3054 124.598 4 4 338
1942216N24132 1942 35 WP MM NOT_NAMED 1942-08-07 21:00:00 NR 23.5000 124.500 main 286 268 __________O___ -1 23.5000 124.500 4 5 330
1942216N24132 1942 35 WP MM NOT_NAMED 1942-08-08 00:00:00 NR 23.7090 124.348 main 259 242 __________P___ -1 23.7090 124.348 4 5 324
1942216N24132 1942 35 WP MM NOT_NAMED 1942-08-08 03:00:00 NR 23.9224 124.160 main 242 217 __________P___ -1 23.9224 124.160 4 6 318
1942216N24132 1942 35 WP MM NOT_NAMED 1942-08-08 06:00:00 NR 24.1246 123.942 main 207 183 __________P___ -1 24.1246 123.942 4 6 312
1942216N24132 1942 35 WP MM NOT_NAMED 1942-08-08 09:00:00 NR 24.3000 123.700 main 183 162 __________O___ -1 24.3000 123.700 4 5 306
1942216N24132 1942 35 WP MM NOT_NAMED 1942-08-08 12:00:00 NR 24.4408 123.459 main 162 131 __________P___ -1 24.4408 123.459 4 5 299
1942216N24132 1942 35 WP MM NOT_NAMED 1942-08-08 15:00:00 NR 24.5522 123.195 main 129 101 __________P___ -1 24.5522 123.195 4 5 291
1942216N24132 1942 35 WP MM NOT_NAMED 1942-08-08 18:00:00 NR 24.6376 122.909 main 101 69 __________P___ -1 24.6376 122.909 4 6 285
1942216N24132 1942 35 WP MM NOT_NAMED 1942-08-08 21:00:00 NR 24.7000 122.600 main 69 45 __________O___ -1 24.7000 122.600 4 6 280
1942216N24132 1942 35 WP MM NOT_NAMED 1942-08-09 00:00:00 NR 24.7426 122.263 main 45 10 __________P___ -1 24.7426 122.263 4 6 276
1942216N24132 1942 35 WP MM NOT_NAMED 1942-08-09 03:00:00 NR 24.7652 121.907 main 10 0 __________P___ -1 24.7652 121.907 4 7 273
1942216N24132 1942 35 WP MM NOT_NAMED 1942-08-09 06:00:00 NR 24.7801 121.548 main 0 0 __________P___ -1 24.7801 121.548 4 6 273
1942216N24132 1942 35 WP MM NOT_NAMED 1942-08-09 09:00:00 NR 24.8000 121.200 main 0 0 __________O___ -1 24.8000 121.200 4 6 271
1942216N24132 1942 35 WP MM NOT_NAMED 1942-08-09 12:00:00 NR 24.7858 120.869 main 10 10 __________P___ -1 24.7858 120.869 4 6 269
1942216N24132 1942 35 WP MM NOT_NAMED 1942-08-09 15:00:00 NR 24.7874 120.554 main 24 24 __________P___ -1 24.7874 120.554 4 6 276
1942216N24132 1942 35 WP MM NOT_NAMED 1942-08-09 18:00:00 NR 24.8453 120.262 main 46 46 __________P___ -1 24.8453 120.262 4 5 293
1942216N24132 1942 35 WP MM NOT_NAMED 1942-08-09 21:00:00 NR 25.0000 120.000 main 52 15 __________O___ -1 25.0000 120.000 4 7 317
1942216N24132 1942 35 WP MM NOT_NAMED 1942-08-10 00:00:00 NR 25.3276 119.764 main 15 0 __________P___ -1 25.3276 119.764 4 9 332
1942216N24132 1942 35 WP MM NOT_NAMED 1942-08-10 03:00:00 NR 25.7472 119.556 main 0 0 __________P___ -1 25.7472 119.556 4 9 338
1942216N24132 1942 35 WP MM NOT_NAMED 1942-08-10 06:00:00 NR 26.1933 119.370 main 0 0 __________P___ -1 26.1933 119.370 4 9 339
1942216N24132 1942 35 WP MM NOT_NAMED 1942-08-10 09:00:00 NR 26.6000 119.200 main 0 0 __________O___ -1 26.6000 119.200 4 8 341
1942216N24132 1942 35 WP MM NOT_NAMED 1942-08-10 12:00:00 NR 26.9027 119.100 main 0 0 __________P___ -1 26.9027 119.100 4 6 342
1942216N24132 1942 35 WP MM NOT_NAMED 1942-08-10 15:00:00 NR 27.1533 119.004 main 0 0 __________P___ -1 27.1533 119.004 4 5 334
1942216N24132 1942 35 WP MM NOT_NAMED 1942-08-10 18:00:00 NR 27.3523 118.856 main 0 0 __________P___ -1 27.3523 118.856 4 5 314
1942216N24132 1942 35 WP MM NOT_NAMED 1942-08-10 21:00:00 NR 27.5000 118.600 main 0 0 __________O___ -1 27.5000 118.600 4 7 289
1942216N24132 1942 35 WP MM NOT_NAMED 1942-08-11 00:00:00 NR 27.5653 118.139 main 0 0 __________P___ -1 27.5653 118.139 4 9 275
1942216N24132 1942 35 WP MM NOT_NAMED 1942-08-11 03:00:00 NR 27.5872 117.573 main 0 0 __________P___ -1 27.5872 117.573 4 10 273
1942216N24132 1942 35 WP MM NOT_NAMED 1942-08-11 06:00:00 NR 27.6153 116.970 main 0 0 __________P___ -1 27.6153 116.970 4 10 276
1942216N24132 1942 35 WP MM NOT_NAMED 1942-08-11 09:00:00 NR 27.7000 116.400 main 0 0 __________O___ -1 27.7000 116.400 4 10 287
1942216N24132 1942 35 WP MM NOT_NAMED 1942-08-11 12:00:00 NR 27.9062 115.866 main 0 0 __________P___ -1 27.9062 115.866 4 10 298
1942216N24132 1942 35 WP MM NOT_NAMED 1942-08-11 15:00:00 NR 28.1751 115.386 main 0 0 __________P___ -1 28.1751 115.386 4 9 307
1942216N24132 1942 35 WP MM NOT_NAMED 1942-08-11 18:00:00 NR 28.4813 115.013 main 0 0 __________P___ -1 28.4813 115.013 4 8 321
1942216N24132 1942 35 WP MM NOT_NAMED 1942-08-11 21:00:00 NR 28.8000 114.800 main 0 0 __________O___ -1 28.8000 114.800 4 6 343
1942216N24132 1942 35 WP MM NOT_NAMED 1942-08-12 00:00:00 NR 29.0882 114.804 main 0 0 __________P___ -1 29.0882 114.804 4 6 14
1942216N24132 1942 35 WP MM NOT_NAMED 1942-08-12 03:00:00 NR 29.3846 114.968 main 0 0 __________P___ -1 29.3846 114.968 4 7 31
1942216N24132 1942 35 WP MM NOT_NAMED 1942-08-12 06:00:00 NR 29.6887 115.223 main 0 0 __________P___ -1 29.6887 115.223 4 8 37
1942216N24132 1942 35 WP MM NOT_NAMED 1942-08-12 09:00:00 NR 30.0000 115.500 main 0 0 __________O___ -1 30.0000 115.500 4 7 33
1942216N24132 1942 35 WP MM NOT_NAMED 1942-08-12 12:00:00 NR 30.3014 115.681 main 0 0 __________P___ -1 30.3014 115.681 4 7 28
1942216N24132 1942 35 WP MM NOT_NAMED 1942-08-12 15:00:00 NR 30.6122 115.871 main 0 0 __________P___ -1 30.6122 115.871 4 7 28
1942216N24132 1942 35 WP MM NOT_NAMED 1942-08-12 18:00:00 NR 30.9420 116.075 main 0 0 __________P___ -1 30.9420 116.075 4 8 28
1942216N24132 1942 35 WP MM NOT_NAMED 1942-08-12 21:00:00 NR 31.3000 116.300 main 0 0 __________O___ -1 31.3000 116.300 4 9 27
1942216N24132 1942 35 WP MM NOT_NAMED 1942-08-13 00:00:00 NR 31.7081 116.533 main 0 0 __________P___ -1 31.7081 116.533 4 9 26
1942216N24132 1942 35 WP MM NOT_NAMED 1942-08-13 03:00:00 NR 32.1420 116.791 main 0 0 __________P___ -1 32.1420 116.791 4 10 28
1942216N24132 1942 35 WP MM NOT_NAMED 1942-08-13 06:00:00 NR 32.5799 117.077 main 0 0 __________P___ -1 32.5799 117.077 4 10 31
1942216N24132 1942 35 WP MM NOT_NAMED 1942-08-13 09:00:00 NR 33.0000 117.400 main 0 0 __________O___ -1 33.0000 117.400 7 10 34
1942216N24132 1942 35 WP MM NOT_NAMED 1942-08-13 12:00:00 NR 33.4159 117.747 main 0 0 __________P___ -1 33.4159 117.747 7 10 37
1942216N24132 1942 35 WP MM NOT_NAMED 1942-08-13 15:00:00 NR 33.8044 118.131 main 0 0 __________P___ -1 33.8044 118.131 7 10 43
1942216N24132 1942 35 WP MM NOT_NAMED 1942-08-13 18:00:00 NR 34.1407 118.550 main 0 0 __________P___ -1 34.1407 118.550 7 9 50
1942216N24132 1942 35 WP MM NOT_NAMED 1942-08-13 21:00:00 NR 34.4000 119.000 main 0 0 __________O___ -1 34.4000 119.000 7 9 62
1942216N24132 1942 35 WP MM NOT_NAMED 1942-08-14 00:00:00 NR 34.5543 119.485 main 0 0 __________P___ -1 34.5543 119.485 7 9 74
1942216N24132 1942 35 WP MM NOT_NAMED 1942-08-14 03:00:00 NR 34.6328 119.995 main 22 22 __________P___ -1 34.6328 119.995 7 8 82
1942216N24132 1942 35 WP MM NOT_NAMED 1942-08-14 06:00:00 NR 34.6699 120.507 main 48 48 __________P___ -1 34.6699 120.507 7 8 85
1942216N24132 1942 35 WP MM NOT_NAMED 1942-08-14 09:00:00 NR 34.7000 121.000 main 78 78 __________O___ -1 34.7000 121.000 7 8 87
1942216N24132 1942 35 WP MM NOT_NAMED 1942-08-14 12:00:00 NR 34.7053 121.457 main 118 118 __________P___ -1 34.7053 121.457 7 7 88
1942216N24132 1942 35 WP MM NOT_NAMED 1942-08-14 15:00:00 NR 34.7218 121.891 main 152 152 __________P___ -1 34.7218 121.891 7 7 82
1942216N24132 1942 35 WP MM NOT_NAMED 1942-08-14 18:00:00 NR 34.8023 122.305 main 191 191 __________P___ -1 34.8023 122.305 7 7 67
1942216N24132 1942 35 WP MM NOT_NAMED 1942-08-14 21:00:00 NR 35.0000 122.700 main 203 171 __________O___ -1 35.0000 122.700 7 9 48
1942216N24132 1942 35 WP MM NOT_NAMED 1942-08-15 00:00:00 NR 35.3814 123.092 main 171 146 __________P___ -1 35.3814 123.092 7 11 36
1942216N24132 1942 35 WP MM NOT_NAMED 1942-08-15 03:00:00 NR 35.8795 123.471 main 142 126 __________P___ -1 35.8795 123.471 7 12 30
1942216N24132 1942 35 WP MM NOT_NAMED 1942-08-15 06:00:00 NR 36.4378 123.839 main 128 122 __________P___ -1 36.4378 123.839 7 13 28
1942216N24132 1942 35 WP MM NOT_NAMED 1942-08-15 09:00:00 NR 37.0000 124.200 main 122 62 __________O___ -1 37.0000 124.200 7 12 28
1942216N24132 1942 35 WP MM NOT_NAMED 1942-08-15 12:00:00 NR 37.5213 124.554 main 56 11 __________P___ -1 37.5213 124.554 7 11 29
1942216N24132 1942 35 WP MM NOT_NAMED 1942-08-15 15:00:00 NR 38.0032 124.904 main 11 0 __________P___ -1 38.0032 124.904 7 11 30
1942216N24132 1942 35 WP MM NOT_NAMED 1942-08-15 18:00:00 NR 38.4585 125.251 main 0 0 __________P___ -1 38.4585 125.251 7 11 31
1942216N24132 1942 35 WP MM NOT_NAMED 1942-08-15 21:00:00 NR 38.9000 125.600 main 0 __________O___ -1 38.9000 125.600 7 10 32

デジタル台風データ・検索

IBTrACS Databaseについて

本データベースは、米国NOAAが公開する1842年以降の世界の熱帯低気圧のベストトラックデータアーカイブInternational Best Track Archive for Climate Stewardship (IBTrACS)を、ウェブで閲覧しやすい形式に変換したものです。

最終更新日:2021-11-26